Cheektowaga, New York
Current Conditions -  °F | °C
As of 8:54 AM on Saturday 25 Oct 2014 (Local Time) from KBUF Reporting Station
Broken Clouds Broken Clouds  
Wind Chill: 55°   Ceiling: 4200
Heat Index: 55°   Visibility: 9mi
Dew Point: 48°   Wind: 13mph
Humidity: 77%   Direction: 210°SSW
Pressure: 29.81"   Gusts: NA
Location:  42.9°N, 78.74°W
Report Text: KBUF 251254Z 21011KT 9SM FEW015 BKN042 BKN090 BKN220 13/09 A2981 RMK AO2 SLP097 T01280089
Loading
Personal Weather Stations






























Interactive Weather Map New forecast layout! Learn more

10-Day Weather Forecast

Advertisements
Track Severe Weather on mobile